createdAt,value
2023-03-06T00:00:34.683Z,85.92
2023-03-06T00:03:52.138Z,86.21
2023-03-06T00:06:55.619Z,86.08
2023-03-06T00:09:58.575Z,86.25
2023-03-06T00:13:05.666Z,86.41
2023-03-06T00:16:09.065Z,86.58
2023-03-06T00:19:12.155Z,87.10
2023-03-06T00:22:16.048Z,87.30
2023-03-06T00:25:21.605Z,87.05
2023-03-06T00:28:24.651Z,86.89
2023-03-06T00:31:28.298Z,86.81
2023-03-06T00:34:31.418Z,86.49
2023-03-06T00:37:34.460Z,86.11
2023-03-06T00:40:37.494Z,85.27
2023-03-06T00:43:40.630Z,85.48
2023-03-06T00:46:43.784Z,85.60
2023-03-06T00:49:46.923Z,86.53
2023-03-06T00:52:49.885Z,87.05
2023-03-06T00:55:53.188Z,86.04
2023-03-06T00:58:56.190Z,86.29
2023-03-06T01:02:00.152Z,85.67
2023-03-06T01:05:03.440Z,85.68
2023-03-06T01:08:06.873Z,85.70
2023-03-06T01:11:09.799Z,85.47
2023-03-06T01:14:13.206Z,85.18
2023-03-06T01:17:18.031Z,85.07
2023-03-06T01:20:21.440Z,85.47
2023-03-06T01:23:24.512Z,85.33
2023-03-06T01:26:27.794Z,85.23
2023-03-06T01:29:30.999Z,84.69
2023-03-06T01:32:34.299Z,84.74
2023-03-06T01:35:41.252Z,84.54
2023-03-06T01:38:44.690Z,84.52
2023-03-06T01:41:47.621Z,84.51
2023-03-06T01:45:20.170Z,84.53
2023-03-06T01:48:24.880Z,84.37
2023-03-06T01:51:33.563Z,84.64
2023-03-06T01:54:42.204Z,84.61
2023-03-06T01:57:48.169Z,84.67
2023-03-06T02:00:51.209Z,84.20
2023-03-06T02:03:55.701Z,84.18
2023-03-06T02:07:00.358Z,84.69
2023-03-06T02:10:04.624Z,84.17
2023-03-06T02:13:07.636Z,84.83
2023-03-06T02:16:11.535Z,84.43
2023-03-06T02:19:24.804Z,84.86
2023-03-06T02:22:37.985Z,84.57
2023-03-06T02:25:48.262Z,84.59
2023-03-06T02:28:51.310Z,84.48
2023-03-06T02:31:54.560Z,83.78
2023-03-06T02:34:58.222Z,84.06
2023-03-06T02:38:16.009Z,84.43
2023-03-06T02:41:19.123Z,84.18
2023-03-06T02:44:24.391Z,84.28
2023-03-06T02:47:27.659Z,84.28
2023-03-06T02:50:31.964Z,83.87
2023-03-06T02:53:34.945Z,83.82
2023-03-06T02:56:38.799Z,84.53
2023-03-06T02:59:41.917Z,84.65
2023-03-06T03:02:45.793Z,84.39
2023-03-06T03:05:48.934Z,83.75
2023-03-06T03:08:51.824Z,83.86
2023-03-06T03:11:54.800Z,83.60
2023-03-06T03:14:57.891Z,83.21
2023-03-06T03:18:01.089Z,82.84
2023-03-06T03:21:08.960Z,82.86
2023-03-06T03:24:11.955Z,82.75
2023-03-06T03:27:15.253Z,82.78
2023-03-06T03:30:19.471Z,82.64
2023-03-06T03:33:22.602Z,82.46
2023-03-06T03:36:27.672Z,82.40
2023-03-06T03:39:30.944Z,82.40
2023-03-06T03:42:34.641Z,82.11
2023-03-06T03:45:37.614Z,82.21
2023-03-06T03:48:40.772Z,81.79
2023-03-06T03:51:44.200Z,81.83
2023-03-06T03:54:47.158Z,81.77
2023-03-06T03:57:50.372Z,81.53
2023-03-06T04:00:53.546Z,81.65
2023-03-06T04:03:56.594Z,81.67
2023-03-06T04:07:00.711Z,81.49
2023-03-06T04:10:04.308Z,81.51
2023-03-06T04:13:09.965Z,81.45
2023-03-06T04:16:13.251Z,81.36
2023-03-06T04:19:16.910Z,81.32
2023-03-06T04:22:20.009Z,81.31
2023-03-06T04:25:22.955Z,81.68
2023-03-06T04:28:26.107Z,81.44
2023-03-06T04:31:29.269Z,81.71
2023-03-06T04:34:32.277Z,81.32
2023-03-06T04:37:35.355Z,81.27
2023-03-06T04:40:38.566Z,81.09
2023-03-06T04:43:41.746Z,81.10
2023-03-06T04:46:45.434Z,80.58
2023-03-06T04:49:48.651Z,80.16
2023-03-06T04:52:52.036Z,80.08
2023-03-06T04:55:55.088Z,79.57
2023-03-06T04:58:58.347Z,79.31
2023-03-06T05:02:01.490Z,79.50
2023-03-06T05:05:05.613Z,78.91
2023-03-06T05:08:13.063Z,79.37
2023-03-06T05:11:16.308Z,79.58
2023-03-06T05:14:19.480Z,79.83
2023-03-06T05:17:22.702Z,79.56
2023-03-06T05:20:26.402Z,79.44
2023-03-06T05:23:33.462Z,79.65
2023-03-06T05:27:00.104Z,79.80
2023-03-06T05:30:26.286Z,79.81
2023-03-06T05:34:09.716Z,79.86
2023-03-06T05:37:33.268Z,79.59
2023-03-06T05:40:40.604Z,79.67
2023-03-06T05:43:45.360Z,79.71
2023-03-06T05:47:09.683Z,79.14
2023-03-06T05:50:32.748Z,79.13
2023-03-06T05:53:35.817Z,78.55
2023-03-06T05:56:41.316Z,77.03
2023-03-06T05:59:46.468Z,76.86
2023-03-06T06:02:50.339Z,76.63
2023-03-06T06:05:53.773Z,75.30
2023-03-06T06:08:57.375Z,75.86
2023-03-06T06:12:03.888Z,75.13
2023-03-06T06:15:08.289Z,74.90
2023-03-06T06:18:11.890Z,73.78
2023-03-06T06:21:15.886Z,73.03
2023-03-06T06:24:22.114Z,73.18
2023-03-06T06:27:25.892Z,72.60
2023-03-06T06:30:29.608Z,72.79
2023-03-06T06:33:33.188Z,72.33
2023-03-06T06:36:53.922Z,71.90
2023-03-06T06:39:58.068Z,71.14
2023-03-06T06:43:03.031Z,71.53
2023-03-06T06:46:38.863Z,69.94
2023-03-06T06:49:31.610Z,70.51
2023-03-06T06:52:35.725Z,72.45
2023-03-06T06:55:39.715Z,72.60
2023-03-06T06:58:42.873Z,72.53
2023-03-06T07:01:46.953Z,71.59
2023-03-06T07:05:03.142Z,71.51
2023-03-06T07:08:07.787Z,70.49
2023-03-06T07:11:16.202Z,70.38
2023-03-06T07:14:19.414Z,67.86
2023-03-06T07:17:22.532Z,67.09
2023-03-06T07:20:26.428Z,66.12
2023-03-06T07:23:30.382Z,66.16
2023-03-06T07:26:35.588Z,64.91
2023-03-06T07:29:39.390Z,65.80
2023-03-06T07:33:10.435Z,65.82
2023-03-06T07:41:31.992Z,65.13
2023-03-06T07:45:57.747Z,64.21
2023-03-06T07:50:21.850Z,64.28
2023-03-06T07:54:29.330Z,64.24
2023-03-06T07:58:57.160Z,61.99
2023-03-06T08:03:40.452Z,63.57
2023-03-06T08:08:19.220Z,63.90
2023-03-06T08:13:02.930Z,62.15
2023-03-06T08:17:24.911Z,62.12
2023-03-06T08:21:44.821Z,62.40
2023-03-06T08:26:28.841Z,62.26
2023-03-06T08:31:12.770Z,62.29
2023-03-06T08:35:37.486Z,60.59
2023-03-06T08:39:49.453Z,61.94
2023-03-06T08:44:33.548Z,61.69
2023-03-06T08:48:57.412Z,61.01
2023-03-06T08:53:17.034Z,61.58
2023-03-06T08:57:30.431Z,60.43
2023-03-06T09:02:14.206Z,59.29
2023-03-06T09:06:55.514Z,59.68
2023-03-06T09:11:57.394Z,59.16
2023-03-06T09:16:21.874Z,59.66
2023-03-06T09:20:38.225Z,61.07
2023-03-06T09:24:41.095Z,59.77
2023-03-06T09:29:03.994Z,57.98
2023-03-06T09:33:28.396Z,58.48
2023-03-06T09:37:38.987Z,58.89
2023-03-06T09:42:07.400Z,58.79
2023-03-06T09:46:29.752Z,57.30
2023-03-06T09:51:15.357Z,55.83
2023-03-06T09:55:27.198Z,55.74
2023-03-06T10:00:04.193Z,55.68
2023-03-06T10:04:38.815Z,55.66
2023-03-06T10:09:17.774Z,53.54
2023-03-06T10:13:56.349Z,54.40
2023-03-06T10:18:26.811Z,51.78
2023-03-06T10:23:00.560Z,52.35
2023-03-06T10:27:12.262Z,53.40
2023-03-06T10:31:16.302Z,51.06
2023-03-06T10:36:07.542Z,52.57
2023-03-06T10:40:29.369Z,51.95
2023-03-06T10:45:01.189Z,50.52
2023-03-06T10:49:25.168Z,49.46
2023-03-06T10:53:39.783Z,49.18
2023-03-06T10:57:58.682Z,50.37
2023-03-06T11:02:24.687Z,48.94
2023-03-06T11:06:33.240Z,50.21
2023-03-06T11:10:57.644Z,49.39
2023-03-06T11:15:16.466Z,48.86
2023-03-06T11:19:23.962Z,47.20
2023-03-06T11:23:42.904Z,48.87
2023-03-06T11:28:36.911Z,49.67
2023-03-06T11:33:31.154Z,49.85
2023-03-06T11:37:59.414Z,49.53
2023-03-06T11:43:55.209Z,49.36
2023-03-06T11:48:04.612Z,48.73
2023-03-06T11:52:24.657Z,48.98
2023-03-06T11:57:11.946Z,49.67
2023-03-06T12:01:58.349Z,50.23
2023-03-06T12:06:28.185Z,50.29
2023-03-06T12:15:49.973Z,50.97
2023-03-06T12:21:01.339Z,52.10
2023-03-06T12:25:47.931Z,51.55
2023-03-06T12:30:03.827Z,51.64
2023-03-06T12:35:05.979Z,51.90
2023-03-06T12:39:42.971Z,51.21
2023-03-06T12:44:33.009Z,50.83
2023-03-06T12:48:58.928Z,51.65
2023-03-06T12:53:42.578Z,51.72
2023-03-06T12:58:08.178Z,53.35
2023-03-06T13:02:54.742Z,54.66
2023-03-06T13:07:59.395Z,55.76
2023-03-06T13:12:25.305Z,56.58
2023-03-06T13:17:04.310Z,57.03
2023-03-06T13:21:27.021Z,56.91
2023-03-06T13:25:58.217Z,57.25
2023-03-06T13:30:16.591Z,56.08
2023-03-06T13:34:45.188Z,54.82
2023-03-06T13:39:18.405Z,53.64
2023-03-06T13:43:31.379Z,53.69
2023-03-06T13:48:33.719Z,53.71
2023-03-06T13:53:03.433Z,52.17
2023-03-06T13:57:36.678Z,52.18
2023-03-06T14:02:27.123Z,51.84
2023-03-06T14:07:05.629Z,52.35
2023-03-06T14:11:47.533Z,52.54
2023-03-06T14:16:32.694Z,51.72
2023-03-06T14:20:55.388Z,51.49
2023-03-06T14:25:39.660Z,51.95
2023-03-06T14:29:46.282Z,51.89
2023-03-06T14:33:59.052Z,51.77
2023-03-06T14:38:25.042Z,52.24
2023-03-06T14:42:52.724Z,53.50
2023-03-06T14:47:24.101Z,54.58
2023-03-06T14:51:28.103Z,55.26
2023-03-06T14:56:12.128Z,55.68
2023-03-06T15:00:31.941Z,56.26
2023-03-06T15:04:59.067Z,57.21
2023-03-06T15:09:36.637Z,57.65
2023-03-06T15:14:23.359Z,58.66
2023-03-06T15:18:53.817Z,60.23
2023-03-06T15:23:38.273Z,62.50
2023-03-06T15:28:07.490Z,63.33
2023-03-06T15:32:53.390Z,65.24
2023-03-06T15:37:21.230Z,66.89
2023-03-06T15:42:08.524Z,68.49
2023-03-06T15:46:39.377Z,68.37
2023-03-06T15:51:18.797Z,69.92
2023-03-06T15:56:02.889Z,71.67
2023-03-06T16:00:26.609Z,72.87
2023-03-06T16:04:51.109Z,72.26
2023-03-06T16:09:34.919Z,72.90
2023-03-06T16:14:09.803Z,71.70
2023-03-06T16:18:35.471Z,71.43
2023-03-06T16:23:03.011Z,72.12
2023-03-06T16:27:18.583Z,72.32
2023-03-06T16:32:02.895Z,71.75
2023-03-06T16:36:42.788Z,72.87
2023-03-06T16:41:21.525Z,73.24
2023-03-06T16:45:45.475Z,73.27
2023-03-06T16:50:05.843Z,73.32
2023-03-06T16:54:50.382Z,73.44
2023-03-06T16:59:06.961Z,73.11
2023-03-06T17:03:15.431Z,73.21
2023-03-06T17:07:48.607Z,73.52
2023-03-06T17:12:32.963Z,72.48
2023-03-06T17:17:06.471Z,72.13
2023-03-06T17:21:46.374Z,71.45
2023-03-06T17:26:14.823Z,71.68
2023-03-06T17:30:26.398Z,71.67
2023-03-06T17:35:10.732Z,71.76
2023-03-06T17:39:35.940Z,71.99
2023-03-06T17:44:23.185Z,72.23
2023-03-06T17:49:07.047Z,72.10
2023-03-06T17:53:22.381Z,71.95
2023-03-06T17:57:51.943Z,71.91
2023-03-06T18:02:14.089Z,71.98
2023-03-06T18:06:40.564Z,72.03
2023-03-06T18:10:47.099Z,72.25
2023-03-06T18:15:17.904Z,72.41
2023-03-06T18:19:32.461Z,72.78
2023-03-06T18:23:44.805Z,72.89
2023-03-06T18:28:10.554Z,73.37
2023-03-06T18:32:38.002Z,73.24
2023-03-06T18:36:53.345Z,73.43
2023-03-06T18:41:27.863Z,73.29
2023-03-06T18:45:32.569Z,73.21
2023-03-06T18:49:48.964Z,73.48
2023-03-06T18:54:00.350Z,73.35
2023-03-06T18:58:08.743Z,73.43
2023-03-06T19:02:14.240Z,73.63
2023-03-06T19:06:54.867Z,73.75
2023-03-06T19:11:08.403Z,73.51
2023-03-06T19:15:15.822Z,73.46
2023-03-06T19:19:40.058Z,73.54
2023-03-06T19:24:19.512Z,73.45
2023-03-06T19:29:03.357Z,73.56
2023-03-06T19:33:47.684Z,73.20
2023-03-06T19:38:13.451Z,73.18
2023-03-06T19:44:11.660Z,73.41
2023-03-06T19:48:38.525Z,72.88
2023-03-06T19:53:15.999Z,72.98
2023-03-06T19:57:39.155Z,72.50
2023-03-06T20:02:09.876Z,72.49
2023-03-06T20:06:12.944Z,72.40
2023-03-06T20:10:44.056Z,72.07
2023-03-06T20:15:03.944Z,71.79
2023-03-06T20:19:27.585Z,71.92
2023-03-06T20:23:46.899Z,71.90
2023-03-06T20:39:19.722Z,71.80
2023-03-06T20:43:58.205Z,71.66
2023-03-06T20:48:22.558Z,71.49
2023-03-06T20:52:48.932Z,71.50
2023-03-06T20:57:12.532Z,71.46
2023-03-06T21:01:35.404Z,71.43
2023-03-06T21:06:17.972Z,71.08
2023-03-06T21:13:53.245Z,71.50
2023-03-06T21:18:37.017Z,71.50
2023-03-06T21:23:08.929Z,71.38
2023-03-06T21:27:40.643Z,71.34
2023-03-06T21:32:07.652Z,71.25
2023-03-06T21:36:51.416Z,71.65
2023-03-06T21:41:35.628Z,71.92
2023-03-06T21:46:15.266Z,72.07
2023-03-06T21:50:59.396Z,72.55
2023-03-06T21:55:43.200Z,72.47
2023-03-06T22:11:49.285Z,72.61
2023-03-06T22:16:11.987Z,72.72
2023-03-06T22:20:36.720Z,72.83
2023-03-06T22:25:06.725Z,72.95
2023-03-06T22:29:29.194Z,72.79
2023-03-06T22:33:53.433Z,73.15
2023-03-06T22:38:05.790Z,73.05
2023-03-06T22:42:28.826Z,73.28
2023-03-06T22:46:53.598Z,73.51
2023-03-06T22:51:36.131Z,73.37
2023-03-06T22:55:58.755Z,72.94
2023-03-06T23:00:21.947Z,72.93
2023-03-06T23:04:46.313Z,72.74
2023-03-06T23:14:06.892Z,72.47
2023-03-06T23:18:16.183Z,72.50
2023-03-06T23:22:59.966Z,71.93
2023-03-06T23:27:43.699Z,72.12
2023-03-06T23:32:27.449Z,72.26
2023-03-06T23:36:54.348Z,71.92
2023-03-06T23:41:33.715Z,71.46
2023-03-06T23:46:11.036Z,71.20
2023-03-06T23:50:34.871Z,71.69
2023-03-06T23:54:47.671Z,71.98
2023-03-06T23:59:19.381Z,71.52
